Flight Track Log - Related Links

Times and Time Zones

All times are in EST time to prevent confusion due to time zone crossing. See the UAL1006 flight status page for this flight to view local times or setup timezone preferences in your user account.

Time Position Orientation Groundspeed Altitude Reporting Facility
EST Latitude Longitude Course Direction KTS MPH feet Rate Location/Type
Mon 01:34:00 AM 5.4599 -74.7067 324° Northwest  Level FlightAware Approximate
Mon 01:35:00 AM 5.5546 -74.7768 324° Northwest  Level FlightAware Approximate
Mon 01:36:00 AM 5.6494 -74.8469 324° Northwest  Level FlightAware Approximate
Mon 01:37:00 AM 5.7446 -74.9164 323° Northwest  Level Estimated
Mon 01:38:00 AM 5.8391 -74.9868 323° Northwest  Level FlightAware Approximate
Mon 01:39:00 AM 5.9336 -75.0572 323° Northwest  Level FlightAware Approximate
Mon 01:40:00 AM 6.0281 -75.1276 323° Northwest  Level FlightAware Approximate
Mon 01:41:00 AM 6.1227 -75.1981 323° Northwest  Level FlightAware Approximate
Mon 01:42:00 AM 6.2172 -75.2686 323° Northwest  Level FlightAware Approximate
Mon 01:43:00 AM 6.3116 -75.3391 323° Northwest  Level FlightAware Approximate
Mon 01:44:00 AM 6.4061 -75.4096 323° Northwest  Level FlightAware Approximate
Mon 01:45:00 AM 6.5006 -75.4802 323° Northwest  Level FlightAware Approximate
Mon 01:46:00 AM 6.5951 -75.5508 323° Northwest  Level FlightAware Approximate
Mon 01:47:00 AM 6.6895 -75.6214 323° Northwest  Level FlightAware Approximate
Mon 01:48:00 AM 6.7840 -75.6920 323° Northwest  Level FlightAware Approximate
Mon 01:49:00 AM 6.8784 -75.7627 323° Northwest  Level FlightAware Approximate
Mon 01:50:00 AM 6.9729 -75.8334 323° Northwest  Level FlightAware Approximate
Mon 01:51:00 AM 7.0673 -75.9041 323° Northwest  Level FlightAware Approximate
Mon 01:52:00 AM 7.1617 -75.9749 323° Northwest  Level FlightAware Approximate
Mon 01:53:00 AM 7.2561 -76.0457 323° Northwest  Level FlightAware Approximate
Mon 01:54:00 AM 7.3505 -76.1165 323° Northwest  Level FlightAware Approximate
Mon 01:55:00 AM 7.4448 -76.1874 323° Northwest  Level FlightAware Approximate
Mon 01:56:00 AM 7.5392 -76.2582 323° Northwest  Level FlightAware Approximate
Mon 01:57:00 AM 7.6335 -76.3291 323° Northwest  Level FlightAware Approximate
Mon 01:58:00 AM 7.7279 -76.4001 323° Northwest  Level FlightAware Approximate
Mon 01:59:00 AM 7.8222 -76.4711 323° Northwest  Level FlightAware Approximate
Mon 02:00:00 AM 7.9165 -76.5421 323° Northwest  Level FlightAware Approximate
Mon 02:01:00 AM 8.0108 -76.6131 323° Northwest  Level FlightAware Approximate
Mon 02:02:00 AM 8.1051 -76.6842 323° Northwest  Level FlightAware Approximate
Mon 02:03:00 AM 8.1994 -76.7553 323° Northwest  Level FlightAware Approximate
Mon 02:04:00 AM 8.2936 -76.8264 323° Northwest  Level FlightAware Approximate
Mon 02:05:00 AM 8.3879 -76.8976 323° Northwest  Level FlightAware Approximate
Mon 02:06:00 AM 8.4821 -76.9688 323° Northwest  Level FlightAware Approximate
Mon 02:07:00 AM 8.5764 -77.0400 323° Northwest  Level FlightAware Approximate
Mon 02:08:00 AM 8.6706 -77.1113 323° Northwest  Level FlightAware Approximate
Mon 02:09:00 AM 8.7648 -77.1826 323° Northwest  Level FlightAware Approximate
Mon 02:10:00 AM 8.8590 -77.2540 323° Northwest  Level FlightAware Approximate
Mon 02:11:00 AM 8.9531 -77.3253 323° Northwest  Level FlightAware Approximate
Mon 02:12:00 AM 9.0473 -77.3968 323° Northwest  Level FlightAware Approximate
Mon 02:13:00 AM 9.1414 -77.4682 323° Northwest  Level FlightAware Approximate
Mon 02:14:00 AM 9.2356 -77.5397 323° Northwest  Level FlightAware Approximate
Mon 02:15:00 AM 9.3297 -77.6112 323° Northwest  Level FlightAware Approximate
Mon 02:16:00 AM 9.4238 -77.6828 323° Northwest  Level FlightAware Approximate
Mon 02:17:00 AM 9.5179 -77.7544 323° Northwest  Level FlightAware Approximate
Mon 02:18:00 AM 9.6120 -77.8261 323° Northwest  Level FlightAware Approximate
Mon 02:19:00 AM 9.7060 -77.8978 323° Northwest  Level FlightAware Approximate
Mon 02:20:00 AM 9.8001 -77.9695 323° Northwest  Level FlightAware Approximate
Mon 02:21:00 AM 9.8941 -78.0413 323° Northwest  Level FlightAware Approximate
Mon 02:22:00 AM 9.9881 -78.1131 323° Northwest  Level FlightAware Approximate
Mon 02:23:00 AM 10.0821 -78.1849 323° Northwest  Level FlightAware Approximate
Mon 02:24:00 AM 10.1761 -78.2568 323° Northwest  Level FlightAware Approximate
Mon 02:25:00 AM 10.2701 -78.3288 323° Northwest  Level FlightAware Approximate
Mon 02:26:00 AM 10.3640 -78.4007 323° Northwest  Level FlightAware Approximate
Mon 02:27:00 AM 10.4579 -78.4727 323° Northwest  Level FlightAware Approximate
Mon 02:28:00 AM 10.5519 -78.5448 323° Northwest  Level FlightAware Approximate
Mon 02:29:00 AM 10.6458 -78.6169 323° Northwest  Level FlightAware Approximate
Mon 02:30:00 AM 10.7396 -78.6891 323° Northwest  Level FlightAware Approximate
Mon 02:31:00 AM 10.8335 -78.7613 323° Northwest  Level FlightAware Approximate
Mon 02:32:00 AM 10.9274 -78.8335 323° Northwest  Level FlightAware Approximate
Mon 02:33:00 AM 11.0212 -78.9058 323° Northwest  Level FlightAware Approximate
Mon 02:34:00 AM 11.1150 -78.9782 323° Northwest  Level FlightAware Approximate
Mon 02:35:00 AM 11.2088 -79.0506 323° Northwest  Level FlightAware Approximate
Mon 02:36:00 AM 11.3026 -79.1230 323° Northwest  Level FlightAware Approximate
Mon 02:37:00 AM 11.3964 -79.1955 323° Northwest  Level FlightAware Approximate
Mon 02:38:00 AM 11.4901 -79.2680 323° Northwest  Level FlightAware Approximate
Mon 02:39:00 AM 11.5839 -79.3406 323° Northwest  Level FlightAware Approximate
Mon 02:40:00 AM 11.6776 -79.4132 323° Northwest  Level FlightAware Approximate
Mon 02:41:00 AM 11.7713 -79.4858 323° Northwest  Level FlightAware Approximate
Mon 02:42:00 AM 11.8650 -79.5586 323° Northwest  Level FlightAware Approximate
Mon 02:43:00 AM 11.9586 -79.6313 323° Northwest  Level FlightAware Approximate
Mon 02:44:00 AM 12.0522 -79.7042 323° Northwest  Level FlightAware Approximate
Mon 02:45:00 AM 12.1459 -79.7770 323° Northwest  Level FlightAware Approximate
Mon 02:46:00 AM 12.2395 -79.8500 323° Northwest  Level FlightAware Approximate
Mon 02:47:00 AM 12.3330 -79.9229 323° Northwest  Level FlightAware Approximate
Mon 02:48:00 AM 12.4266 -79.9960 323° Northwest  Level FlightAware Approximate
Mon 02:49:00 AM 12.5202 -80.0690 323° Northwest  Level FlightAware Approximate
Mon 02:50:00 AM 12.6137 -80.1422 323° Northwest  Level FlightAware Approximate
Mon 02:51:00 AM 12.7072 -80.2154 323° Northwest  Level FlightAware Approximate
Mon 02:52:00 AM 12.8006 -80.2886 323° Northwest  Level FlightAware Approximate
Mon 02:53:00 AM 12.8941 -80.3619 323° Northwest  Level FlightAware Approximate
Mon 02:54:00 AM 12.9875 -80.4352 323° Northwest  Level FlightAware Approximate
Mon 02:55:00 AM 13.0810 -80.5087 323° Northwest  Level FlightAware Approximate
Mon 02:56:00 AM 13.1744 -80.5821 323° Northwest  Level FlightAware Approximate
Mon 02:57:00 AM 13.2677 -80.6556 323° Northwest  Level FlightAware Approximate
Mon 02:58:00 AM 13.3611 -80.7292 323° Northwest  Level FlightAware Approximate
Mon 02:59:00 AM 13.4544 -80.8028 323° Northwest  Level FlightAware Approximate
Mon 03:00:00 AM 13.5478 -80.8765 322° Northwest  Level FlightAware Approximate
Mon 03:01:00 AM 13.6411 -80.9503 322° Northwest  Level FlightAware Approximate
Mon 03:02:00 AM 13.7343 -81.0241 322° Northwest  Level FlightAware Approximate
Mon 03:03:00 AM 13.8276 -81.0979 322° Northwest  Level FlightAware Approximate
Mon 03:04:00 AM 13.9208 -81.1719 322° Northwest  Level FlightAware Approximate
Mon 03:05:00 AM 14.0140 -81.2458 322° Northwest  Level FlightAware Approximate
Mon 03:06:00 AM 14.1072 -81.3199 322° Northwest  Level FlightAware Approximate
Mon 03:07:00 AM 14.2004 -81.3940 322° Northwest  Level FlightAware Approximate
Mon 03:08:00 AM 14.2935 -81.4681 322° Northwest  Level FlightAware Approximate
Mon 03:09:00 AM 14.3876 -81.5411 320° Northwest  Level Estimated
Mon 03:10:00 AM 14.4799 -81.6163 322° Northwest  Level FlightAware Approximate
Mon 03:11:00 AM 14.5723 -81.6916 322° Northwest  Level FlightAware Approximate
Mon 03:12:00 AM 14.6663 -81.7647 322° Northwest  Level Estimated
Mon 03:13:00 AM 14.7593 -81.8392 322° Northwest  Level FlightAware Approximate
Mon 03:14:00 AM 14.8523 -81.9137 322° Northwest  Level FlightAware Approximate
Mon 03:15:00 AM 14.9453 -81.9884 322° Northwest  Level FlightAware Approximate
Mon 03:16:00 AM 15.0382 -82.0630 322° Northwest  Level FlightAware Approximate
Mon 03:17:00 AM 15.1311 -82.1378 322° Northwest  Level FlightAware Approximate
Mon 03:18:00 AM 15.2240 -82.2126 322° Northwest  Level FlightAware Approximate
Mon 03:19:00 AM 15.3169 -82.2875 322° Northwest  Level FlightAware Approximate
Mon 03:20:00 AM 15.4097 -82.3624 322° Northwest  Level FlightAware Approximate
Mon 03:21:00 AM 15.5026 -82.4374 322° Northwest  Level FlightAware Approximate
Mon 03:22:00 AM 15.5954 -82.5125 322° Northwest  Level FlightAware Approximate
Mon 03:23:00 AM 15.6881 -82.5876 322° Northwest  Level FlightAware Approximate
Mon 03:24:00 AM 15.7809 -82.6628 322° Northwest  Level FlightAware Approximate
Mon 03:25:00 AM 15.8736 -82.7381 322° Northwest  Level FlightAware Approximate
Mon 03:26:00 AM 15.9663 -82.8135 322° Northwest  Level FlightAware Approximate
Mon 03:27:00 AM 16.0589 -82.8889 322° Northwest  Level FlightAware Approximate
Mon 03:28:00 AM 16.1516 -82.9644 322° Northwest  Level FlightAware Approximate
Mon 03:29:00 AM 16.2442 -83.0399 322° Northwest  Level FlightAware Approximate
Mon 03:30:00 AM 16.3364 -83.1153 322° Northwest  Level FlightAware Approximate
Mon 03:31:00 AM 16.4286 -83.1907 322° Northwest  Level FlightAware Approximate
Mon 03:32:00 AM 16.5208 -83.2662 322° Northwest  Level FlightAware Approximate
Mon 03:33:00 AM 16.6130 -83.3418 322° Northwest  Level FlightAware Approximate
Mon 03:34:00 AM 16.7052 -83.4175 322° Northwest  Level FlightAware Approximate
Mon 03:35:00 AM 16.7973 -83.4932 322° Northwest  Level FlightAware Approximate
Mon 03:36:00 AM 16.8894 -83.5690 322° Northwest  Level FlightAware Approximate
Mon 03:37:00 AM 16.9814 -83.6449 322° Northwest  Level FlightAware Approximate
Mon 03:38:00 AM 17.0735 -83.7208 322° Northwest  Level FlightAware Approximate
Mon 03:39:00 AM 17.1654 -83.7968 322° Northwest  Level FlightAware Approximate
Mon 03:40:00 AM 17.2574 -83.8729 322° Northwest  Level FlightAware Approximate
Mon 03:41:00 AM 17.3494 -83.9491 322° Northwest  Level FlightAware Approximate
Mon 03:42:00 AM 17.4413 -84.0253 322° Northwest  Level FlightAware Approximate
Mon 03:43:00 AM 17.5332 -84.1016 322° Northwest  Level FlightAware Approximate
Mon 03:44:00 AM 17.6262 -84.1764 321° Northwest  Level Estimated
Mon 03:45:00 AM 17.7178 -84.2532 321° Northwest  Level FlightAware Approximate
Mon 03:46:00 AM 17.8094 -84.3300 321° Northwest  Level FlightAware Approximate
Mon 03:47:00 AM 17.9010 -84.4070 321° Northwest  Level FlightAware Approximate
Mon 03:48:00 AM 17.9925 -84.4840 321° Northwest  Level FlightAware Approximate
Mon 03:49:00 AM 18.0840 -84.5611 321° Northwest  Level FlightAware Approximate
Mon 03:50:00 AM 18.1754 -84.6382 321° Northwest  Level FlightAware Approximate
Mon 03:51:00 AM 18.2668 -84.7155 321° Northwest  Level FlightAware Approximate
Mon 03:52:00 AM 18.3582 -84.7928 321° Northwest  Level FlightAware Approximate
Mon 03:53:00 AM 18.4496 -84.8702 321° Northwest  Level FlightAware Approximate
Mon 03:54:00 AM 18.5409 -84.9477 321° Northwest  Level FlightAware Approximate
Mon 03:55:00 AM 18.6322 -85.0253 321° Northwest  Level FlightAware Approximate
Mon 03:56:00 AM 18.7234 -85.1030 321° Northwest  Level FlightAware Approximate
Mon 03:57:00 AM 18.8147 -85.1807 321° Northwest  Level FlightAware Approximate
Mon 03:58:00 AM 18.9059 -85.2586 321° Northwest  Level FlightAware Approximate
Mon 03:59:00 AM 18.9970 -85.3365 321° Northwest  Level FlightAware Approximate
Mon 04:00:00 AM 19.0882 -85.4145 321° Northwest  Level FlightAware Approximate
Mon 04:01:00 AM 19.1793 -85.4926 321° Northwest  Level FlightAware Approximate
Mon 04:02:00 AM 19.2703 -85.5707 321° Northwest  Level FlightAware Approximate
Mon 04:03:00 AM 19.3631 -85.6468 321° Northwest  Level Estimated
Mon 04:04:00 AM 19.4542 -85.7250 321° Northwest  Level FlightAware Approximate
Mon 04:05:00 AM 19.5453 -85.8033 321° Northwest  Level FlightAware Approximate
Mon 04:06:00 AM 19.6363 -85.8816 321° Northwest  Level FlightAware Approximate
Mon 04:07:00 AM 19.7273 -85.9601 321° Northwest  Level FlightAware Approximate
Mon 04:08:00 AM 19.8183 -86.0386 321° Northwest  Level FlightAware Approximate
Mon 04:09:00 AM 19.9093 -86.1173 321° Northwest  Level FlightAware Approximate
Mon 04:10:00 AM 20.0002 -86.1960 321° Northwest  Level FlightAware Approximate
Mon 04:11:00 AM 20.0911 -86.2748 321° Northwest  Level FlightAware Approximate
Mon 04:12:00 AM 20.1784 -86.3507 321° Northwest  Level FlightAware Approximate
Mon 04:13:00 AM 20.2658 -86.4267 321° Northwest  Level FlightAware Approximate
Mon 04:14:00 AM 20.3531 -86.5028 321° Northwest  Level FlightAware Approximate
Mon 04:15:00 AM 20.4404 -86.5789 321° Northwest  Level FlightAware Approximate
Mon 04:16:00 AM 20.5276 -86.6552 321° Northwest  Level FlightAware Approximate
Mon 04:17:00 AM 20.6148 -86.7315 321° Northwest  Level FlightAware Approximate
Mon 04:18:00 AM 20.7020 -86.8079 321° Northwest  Level FlightAware Approximate
Mon 04:19:00 AM 20.7891 -86.8844 321° Northwest  Level FlightAware Approximate
Mon 04:20:00 AM 20.8780 -86.9587 320° Northwest  Level Estimated
Mon 04:21:00 AM 20.9647 -87.0358 320° Northwest  Level FlightAware Approximate
Mon 04:22:00 AM 21.0515 -87.1130 320° Northwest  Level FlightAware Approximate
Mon 04:23:00 AM 21.1381 -87.1903 320° Northwest  Level FlightAware Approximate
Mon 04:24:00 AM 21.2248 -87.2676 320° Northwest  Level FlightAware Approximate
Mon 04:25:00 AM 21.3114 -87.3451 320° Northwest  Level FlightAware Approximate
Mon 04:26:00 AM 21.3980 -87.4226 320° Northwest  Level FlightAware Approximate
Mon 04:27:00 AM 21.4845 -87.5003 320° Northwest  Level FlightAware Approximate
Mon 04:28:00 AM 21.5733 -87.5751 327° Northwest  Level Estimated
Mon 04:29:00 AM 21.6633 -87.6481 323° Northwest  Level FlightAware Approximate
Mon 04:30:00 AM 21.7578 -87.7226 324° Northwest  Level FlightAware Approximate
Mon 04:31:00 AM 21.8522 -87.7973 324° Northwest  Level FlightAware Approximate
Mon 04:32:00 AM 21.9466 -87.8720 324° Northwest  Level FlightAware Approximate
Mon 04:33:00 AM 22.0409 -87.9469 324° Northwest  Level FlightAware Approximate
Mon 04:34:00 AM 22.1352 -88.0218 324° Northwest  Level FlightAware Approximate
Mon 04:35:00 AM 22.2295 -88.0969 324° Northwest  Level FlightAware Approximate
Mon 04:36:00 AM 22.3238 -88.1720 324° Northwest  Level FlightAware Approximate
Mon 04:37:00 AM 22.4180 -88.2473 324° Northwest  Level FlightAware Approximate
Mon 04:38:00 AM 22.5122 -88.3226 324° Northwest  Level FlightAware Approximate
Mon 04:39:00 AM 22.6063 -88.3981 324° Northwest  Level FlightAware Approximate
Mon 04:40:00 AM 22.7004 -88.4737 323° Northwest  Level FlightAware Approximate
Mon 04:41:00 AM 22.7945 -88.5493 323° Northwest  Level FlightAware Approximate
Mon 04:42:00 AM 22.8886 -88.6251 323° Northwest  Level FlightAware Approximate
Mon 04:43:00 AM 22.9826 -88.7010 323° Northwest  Level FlightAware Approximate
Mon 04:44:00 AM 23.0765 -88.7770 323° Northwest  Level FlightAware Approximate
Mon 04:45:00 AM 23.1721 -88.8540 326° Northwest  Level FlightAware Approximate
Mon 04:46:00 AM 23.2690 -88.9256 326° Northwest  Level FlightAware Approximate
Mon 04:47:00 AM 23.3659 -88.9972 326° Northwest  Level FlightAware Approximate
Mon 04:48:00 AM 23.4627 -89.0690 326° Northwest  Level FlightAware Approximate
Mon 04:49:00 AM 23.5596 -89.1409 326° Northwest  Level FlightAware Approximate
Mon 04:50:00 AM 23.6563 -89.2129 326° Northwest  Level FlightAware Approximate
Mon 04:51:00 AM 23.7531 -89.2850 326° Northwest  Level FlightAware Approximate
Mon 04:52:00 AM 23.8498 -89.3571 326° Northwest  Level FlightAware Approximate
Mon 04:53:00 AM 23.9465 -89.4295 326° Northwest  Level FlightAware Approximate
Mon 04:54:00 AM 24.0432 -89.5019 326° Northwest  Level FlightAware Approximate
Mon 04:55:00 AM 24.1398 -89.5744 326° Northwest  Level FlightAware Approximate
Mon 04:56:00 AM 24.2364 -89.6470 326° Northwest  Level FlightAware Approximate
Mon 04:57:00 AM 24.3330 -89.7198 326° Northwest  Level FlightAware Approximate
Mon 04:58:00 AM 24.4295 -89.7926 326° Northwest  Level FlightAware Approximate
Mon 04:59:00 AM 24.5240 -89.8683 325° Northwest  Level FlightAware Approximate
Mon 05:00:00 AM 24.6203 -89.9416 325° Northwest  Level FlightAware Approximate
Mon 05:01:00 AM 24.7166 -90.0150 325° Northwest  Level FlightAware Approximate
Mon 05:02:00 AM 24.8128 -90.0886 325° Northwest  Level FlightAware Approximate
Mon 05:03:00 AM 24.9090 -90.1622 325° Northwest  Level FlightAware Approximate
Mon 05:04:00 AM 25.0052 -90.2360 325° Northwest  Level FlightAware Approximate
Mon 05:05:00 AM 25.1013 -90.3099 325° Northwest  Level FlightAware Approximate
Mon 05:06:00 AM 25.1974 -90.3839 325° Northwest  Level FlightAware Approximate
Mon 05:07:00 AM 25.2934 -90.4580 325° Northwest  Level FlightAware Approximate
Mon 05:08:00 AM 25.3894 -90.5323 325° Northwest  Level FlightAware Approximate
Mon 05:09:00 AM 25.4854 -90.6066 325° Northwest  Level FlightAware Approximate
Mon 05:10:00 AM 25.5813 -90.6811 325° Northwest  Level FlightAware Approximate
Mon 05:11:00 AM 25.6772 -90.7557 325° Northwest  Level FlightAware Approximate
Mon 05:12:00 AM 25.7731 -90.8304 325° Northwest  Level FlightAware Approximate
Mon 05:13:00 AM 25.8689 -90.9053 325° Northwest  Level FlightAware Approximate
Mon 05:14:00 AM 25.9647 -90.9802 325° Northwest  Level FlightAware Approximate
Mon 05:15:00 AM 26.0604 -91.0553 325° Northwest  Level FlightAware Approximate
Mon 05:16:00 AM 26.1561 -91.1305 325° Northwest  Level FlightAware Approximate
Mon 05:17:00 AM 26.2518 -91.2059 325° Northwest  Level FlightAware Approximate
Mon 05:18:00 AM 26.3474 -91.2813 325° Northwest  Level FlightAware Approximate
Mon 05:19:00 AM 26.4431 -91.3568 325° Northwest  Level FlightAware Approximate
Mon 05:20:00 AM 26.5387 -91.4324 325° Northwest  Level FlightAware Approximate
Mon 05:21:00 AM 26.6342 -91.5082 325° Northwest  Level FlightAware Approximate
Mon 05:22:00 AM 26.7297 -91.5841 325° Northwest  Level FlightAware Approximate
Mon 05:23:00 AM 26.8252 -91.6601 325° Northwest  Level FlightAware Approximate
Mon 05:24:00 AM 26.9206 -91.7363 325° Northwest  Level FlightAware Approximate
Mon 05:25:00 AM 27.0160 -91.8125 325° Northwest  Level FlightAware Approximate
Mon 05:25:52 AM 27.3479 -92.0886 325° Northwest 423 487 38,000  Level FlightAware ADS-B
Mon 05:26:00 AM 27.1113 -91.8889 325° Northwest  Level FlightAware Approximate
Mon 05:26:16 AM 27.3792 -92.1169 325° Northwest 424 488 38,000  Level Houston Center
Mon 05:26:45 AM 27.4326 -92.1575 324° Northwest 422 486 38,000  Level FlightAware ADS-B
Mon 05:27:16 AM 27.4739 -92.1914 325° Northwest 418 481 38,000  Level Houston Center
Mon 05:28:16 AM 27.5697 -92.2703 324° Northwest 423 487 38,000  Level Houston Center
Mon 05:29:00 AM 27.6453 -92.3329 324° Northwest  Level FlightAware Approximate
Mon 05:29:16 AM 27.6644 -92.3472 324° Northwest 421 484 38,000  Level Houston Center
Mon 05:30:00 AM 27.7398 -92.4111 324° Northwest  Level FlightAware Approximate
Mon 05:30:16 AM 27.7600 -92.4264 324° Northwest 424 488 38,000  Level Houston Center
Mon 05:31:00 AM 27.8352 -92.4880 325° Northwest  Level FlightAware Approximate
Mon 05:31:16 AM 27.8556 -92.5025 325° Northwest 422 486 38,000  Level Houston Center
Mon 05:32:17 AM 27.9506 -92.5797 324° Northwest 421 484 38,000  Level Houston Center
Mon 05:33:17 AM 28.0439 -92.6583 323° Northwest 418 481 38,000  Level Houston Center
Mon 05:34:17 AM 28.1250 -92.7486 316° Northwest 411 473 38,000  Level Houston Center
Mon 05:35:17 AM 28.1739 -92.8628 296° West 405 466 38,000  Level Houston Center
Mon 05:36:17 AM 28.2261 -92.9747 298° West 402 463 38,000 -296 Level Houston Center
Mon 05:42:03 AM 28.5166 -93.6357 298° West 402 463 36,000 -318 Descending FlightAware ADS-B
Mon 05:42:34 AM 28.5421 -93.6940 296° West 403 464 36,000  Level FlightAware ADS-B
Mon 05:42:45 AM 28.5481 -93.7079 296° West 403 464 36,000  Level FlightAware ADS-B
Mon 05:43:04 AM 28.5672 -93.7516 296° West 403 464 36,000  Level FlightAware ADS-B
Mon 05:43:15 AM 28.5796 -93.7801 296° West 403 464 36,000  Level FlightAware ADS-B
Mon 05:43:35 AM 28.5924 -93.8094 296° West 402 463 36,000  Level FlightAware ADS-B
Mon 05:44:05 AM 28.6172 -93.8664 296° West 402 463 36,000  Level FlightAware ADS-B
Mon 05:44:35 AM 28.6420 -93.9234 296° West 402 463 36,000  Level FlightAware ADS-B
Mon 05:45:05 AM 28.6670 -93.9809 296° West 401 461 36,000  Level FlightAware ADS-B
Mon 05:45:14 AM 28.6778 -94.0057 296° West 401 461 36,000  Level FlightAware ADS-B
Mon 05:46:02 AM 28.7132 -94.0876 296° West 400 460 36,000  Level FlightAware ADS-B
Mon 05:46:32 AM 28.7383 -94.1453 296° West 400 460 36,000  Level FlightAware ADS-B
Mon 05:47:04 AM 28.7639 -94.2045 296° West 399 459 36,000  Level FlightAware ADS-B
Mon 05:47:34 AM 28.7883 -94.2612 296° West 398 458 36,000  Level FlightAware ADS-B
Mon 05:48:04 AM 28.8128 -94.3181 296° West 399 459 36,000  Level FlightAware ADS-B
Mon 05:48:34 AM 28.8374 -94.3754 296° West 398 458 36,000  Level FlightAware ADS-B
Mon 05:49:05 AM 28.8620 -94.4327 296° West 398 458 36,000  Level FlightAware ADS-B
Mon 05:49:35 AM 28.8864 -94.4895 296° West 397 457 36,000  Level FlightAware ADS-B
Mon 05:50:05 AM 28.9108 -94.5466 296° West 397 457 36,000  Level FlightAware ADS-B
Mon 05:50:36 AM 28.9357 -94.6045 296° West 397 457 36,000  Level FlightAware ADS-B
Mon 05:51:06 AM 28.9596 -94.6608 296° West 397 457 36,000  Level FlightAware ADS-B
Mon 05:51:36 AM 28.9837 -94.7173 296° West 396 456 36,000  Level FlightAware ADS-B
Mon 05:52:06 AM 29.0078 -94.7739 296° West 396 456 36,000  Level FlightAware ADS-B
Mon 05:52:37 AM 29.0326 -94.8322 296° West 396 456 36,000  Level FlightAware ADS-B
Mon 05:53:08 AM 29.0568 -94.8894 296° West 397 457 36,000  Level FlightAware ADS-B
Mon 05:53:38 AM 29.0809 -94.9461 296° West 397 457 36,000  Level FlightAware ADS-B
Mon 05:54:08 AM 29.1052 -95.0034 296° West 397 457 36,000  Level FlightAware ADS-B
Mon 05:54:38 AM 29.1291 -95.0600 296° West 397 457 36,000  Level FlightAware ADS-B
Mon 05:54:53 AM 29.1434 -95.0941 296° West 397 457 36,000  Level FlightAware ADS-B
Mon 05:55:08 AM 29.1531 -95.1169 296° West 397 457 36,000  Level FlightAware ADS-B
Mon 05:55:26 AM 29.1693 -95.1552 296° West 398 458 36,000  Level FlightAware ADS-B
Mon 05:55:39 AM 29.1774 -95.1742 296° West 398 458 36,000  Level FlightAware ADS-B
Mon 05:56:09 AM 29.2015 -95.2319 296° West 398 458 36,000  Level FlightAware ADS-B
Mon 05:56:40 AM 29.2260 -95.2899 296° West 399 459 36,000  Level FlightAware ADS-B
Mon 05:57:10 AM 29.2499 -95.3470 296° West 399 459 36,000 -171 Level FlightAware ADS-B
Mon 05:57:50 AM 29.2824 -95.4246 296° West 399 459 35,800 -608 Descending FlightAware ADS-B
Mon 05:58:29 AM 29.3127 -95.4970 296° West 395 455 35,200 -1,091 Descending FlightAware ADS-B
Mon 05:58:56 AM 29.3379 -95.5576 296° West 405 466 34,600 -1,059 Descending FlightAware ADS-B
Mon 05:59:03 AM 29.3402 -95.5630 296° West 404 465 34,600 -789 Level FlightAware ADS-B
Mon 05:59:34 AM 29.3649 -95.6225 295° West 412 474 34,100 -1,019 Descending FlightAware ADS-B
Mon 05:59:56 AM 29.3839 -95.6680 296° West 413 475 33,700 -904 Descending FlightAware ADS-B
Mon 06:00:47 AM 29.4251 -95.7676 295° West 415 478 33,000 -889 Descending FlightAware ADS-B
Mon 06:01:17 AM 29.4501 -95.8279 295° West 420 483 32,500 -1,029 Descending FlightAware ADS-B
Mon 06:01:57 AM 29.4836 -95.9084 296° West 429 494 31,800 -1,886 Descending FlightAware ADS-B
Mon 06:02:27 AM 29.5094 -95.9703 296° West 431 496 30,300 -3,200 Descending FlightAware ADS-B
Mon 06:02:57 AM 29.5353 -96.0330 295° West 433 498 28,600 -3,100 Descending FlightAware ADS-B
Mon 06:03:27 AM 29.5605 -96.0949 295° West 428 493 27,200 -2,632 Descending FlightAware ADS-B
Mon 06:03:54 AM 29.5832 -96.1504 295° West 421 484 26,100 -2,526 Descending FlightAware ADS-B
Mon 06:04:24 AM 29.6079 -96.2105 295° West 415 478 24,800 -2,557 Descending FlightAware ADS-B
Mon 06:04:55 AM 29.6324 -96.2700 295° West 408 470 23,500 -2,459 Descending FlightAware ADS-B
Mon 06:05:25 AM 29.6565 -96.3292 295° West 402 463 22,300 -2,500 Descending FlightAware ADS-B
Mon 06:05:55 AM 29.6802 -96.3873 295° West 395 455 21,000 -2,500 Descending FlightAware ADS-B
Mon 06:06:25 AM 29.7032 -96.4440 295° West 388 447 19,800 -2,727 Descending FlightAware ADS-B
Mon 06:06:28 AM 29.7084 -96.4568 295° West 386 444 19,500 -2,400 Descending FlightAware ADS-B
Mon 06:06:55 AM 29.7258 -96.4997 295° West 381 438 18,600 -2,143 Descending FlightAware ADS-B
Mon 06:07:24 AM 29.7473 -96.5521 295° West 376 433 17,500 -2,300 Descending FlightAware ADS-B
Mon 06:07:55 AM 29.7696 -96.6067 295° West 372 428 16,300 -2,361 Descending FlightAware ADS-B
Mon 06:08:25 AM 29.7910 -96.6600 295° West 366 421 15,100 -2,400 Descending FlightAware ADS-B
Mon 06:08:55 AM 29.8126 -96.7133 295° West 361 415 13,900 -2,300 Descending FlightAware ADS-B
Mon 06:09:25 AM 29.8337 -96.7656 295° West 358 412 12,800 -2,300 Descending FlightAware ADS-B
Mon 06:09:55 AM 29.8540 -96.8160 295° West 353 406 11,600 -2,262 Descending FlightAware ADS-B
Mon 06:10:26 AM 29.8750 -96.8680 295° West 347 399 10,500 -1,424 Descending FlightAware ADS-B
Mon 06:10:54 AM 29.8928 -96.9131 294° West 322 371 10,200 -833 Descending FlightAware ADS-B
Mon 06:11:02 AM 29.8968 -96.9271 288° West 313 360 10,000 -1,000 Descending FlightAware ADS-B
Mon 06:11:18 AM 29.9028 -96.9510 286° West 300 345 9,800 -968 Descending FlightAware ADS-B
Mon 06:11:33 AM 29.9085 -96.9741 286° West 291 335 9,500 -1,161 Descending FlightAware ADS-B
Mon 06:11:49 AM 29.9145 -96.9975 286° West 284 327 9,200 -1,313 Descending FlightAware ADS-B
Mon 06:12:05 AM 29.9204 -97.0200 287° West 280 322 8,800 -1,600 Descending FlightAware ADS-B
Mon 06:12:34 AM 29.9314 -97.0615 287° West 275 316 8,000 -1,421 Descending FlightAware ADS-B
Mon 06:12:43 AM 29.9344 -97.0734 286° West 271 312 7,900 -1,440 Descending FlightAware ADS-B
Mon 06:12:59 AM 29.9404 -97.0956 287° West 269 310 7,400 -1,692 Descending FlightAware ADS-B
Mon 06:13:22 AM 29.9488 -97.1272 287° West 270 311 6,800 -1,579 Descending FlightAware ADS-B
Mon 06:13:37 AM 29.9542 -97.1477 287° West 270 311 6,400 -1,455 Descending FlightAware ADS-B
Mon 06:14:28 AM 29.9720 -97.2169 287° West 270 311 5,200 -567 Descending FlightAware ADS-B
Mon 06:20:30 AM 30.0847 -97.6562 287° West 159 183 2,500 -433 Descending FlightAware ADS-B
Mon 06:20:42 AM 30.0889 -97.6655 298° West 155 178 2,500  Level FlightAware ADS-B
Mon 06:20:47 AM 30.0913 -97.6686 312° West 153 176 2,500  Level FlightAware ADS-B
Mon 06:20:51 AM 30.0932 -97.6707 316° Northwest 151 174 2,500 -750 Level FlightAware ADS-B
Mon 06:20:55 AM 30.0954 -97.6724 326° Northwest 150 173 2,400 -1,333 Descending FlightAware ADS-B
Mon 06:21:00 AM 30.0983 -97.6742 332° Northwest 150 173 2,300 -1,500 Descending FlightAware ADS-B
Mon 06:21:03 AM 30.1003 -97.6750 341° North 150 173 2,200 -2,000 Descending FlightAware ADS-B
Mon 06:21:06 AM 30.1025 -97.6757 345° North 152 175 2,100 -2,000 Descending FlightAware ADS-B
Mon 06:21:09 AM 30.1048 -97.6761 351° North 154 177 2,000 -1,333 Descending FlightAware ADS-B
Mon 06:21:24 AM 30.1152 -97.6768 357° North 151 174 1,700 -1,000 Descending FlightAware ADS-B
Mon 06:21:39 AM 30.1255 -97.6769 360° North 147 169 1,500 -774 Descending FlightAware ADS-B
Mon 06:21:55 AM 30.1360 -97.6773 358° North 142 163 1,300 -833 Descending FlightAware ADS-B
Mon 06:22:15 AM 30.1489 -97.6776 359° North 142 163 1,000 -330 Descending FlightAware ADS-B
Mon 06:23:26 AM 30.1889 -97.6800 359° North 147 169 800 -169 Descending Houston Center
Mon 06:25:00 AM 30.1833 -97.6667 North  Level FlightAware Approximate

Login

Don't have an account? Register now (free) for customized features, flight alerts, and more!